Time;durP1;ratioP1;P1;durP2;ratioP2;P2;SDS_P1;SDS_P2;PMS_P1;PMS_P2;Temp;Humidity;BMP_temperature;BMP_pressure;BME280_temperature;BME280_humidity;BME280_pressure;Samples;Min_cycle;Max_cycle;Signal;HPM_P1;HPM_P2
2022/11/08 00:02:24;;;;;;;17.65;3.38;;;10.40;99.90;;;;;;5069363;28;20048;-65
2022/11/08 00:04:51;;;;;;;6.63;2.30;;;10.40;99.90;;;;;;5052162;28;20117;-70
2022/11/08 00:15:37;;;;;;;10.13;3.30;;;10.30;99.90;;;;;;5061466;28;20132;-66
2022/11/08 00:18:06;;;;;;;15.80;3.25;;;10.30;99.90;;;;;;5065577;28;20794;-66
2022/11/08 00:20:33;;;;;;;9.48;3.15;;;10.30;99.90;;;;;;5054557;28;20072;-71
2022/11/08 00:23:00;;;;;;;14.05;3.50;;;10.30;99.90;;;;;;5063697;28;20044;-65
2022/11/08 00:25:27;;;;;;;9.90;3.67;;;10.20;99.90;;;;;;5064364;28;20121;-65
2022/11/08 00:27:54;;;;;;;9.05;3.33;;;10.30;99.90;;;;;;5063769;28;20052;-68
2022/11/08 00:30:20;;;;;;;12.32;2.95;;;10.30;99.90;;;;;;5059318;28;20689;-65
2022/11/08 00:32:47;;;;;;;10.05;3.10;;;10.30;99.90;;;;;;5065490;28;20060;-66
2022/11/08 00:35:15;;;;;;;6.63;3.53;;;10.30;99.90;;;;;;5064925;28;20124;-65
2022/11/08 00:37:41;;;;;;;6.47;3.28;;;10.30;99.90;;;;;;5064125;28;20141;-66
2022/11/08 00:40:09;;;;;;;8.10;2.70;;;10.30;99.90;;;;;;5067021;28;20090;-66
2022/11/08 00:42:36;;;;;;;8.32;3.17;;;10.40;99.90;;;;;;5062519;28;20478;-66
2022/11/08 00:45:03;;;;;;;11.70;3.47;;;10.40;99.90;;;;;;5064503;28;20188;-66
2022/11/08 00:47:30;;;;;;;14.30;4.25;;;10.40;99.90;;;;;;5065458;28;20040;-65
2022/11/08 00:49:57;;;;;;;7.75;2.85;;;10.40;99.90;;;;;;5066790;28;20102;-65
2022/11/08 00:52:24;;;;;;;7.68;2.70;;;10.40;99.90;;;;;;5066479;28;20040;-65
2022/11/08 00:54:51;;;;;;;12.02;4.75;;;10.40;99.90;;;;;;5064649;28;20052;-65
2022/11/08 00:57:18;;;;;;;7.88;3.67;;;10.40;99.90;;;;;;5067231;28;20124;-66
2022/11/08 00:59:56;;;;;;;7.85;3.67;;;10.40;99.90;;;;;;5067426;28;20370;-66
2022/11/08 01:02:23;;;;;;;15.10;3.15;;;10.40;99.90;;;;;;5079218;28;20044;-65
2022/11/08 01:04:50;;;;;;;9.45;3.72;;;10.40;99.90;;;;;;5071180;28;20481;-65
2022/11/08 01:07:17;;;;;;;8.88;2.55;;;10.40;99.90;;;;;;5071046;28;20423;-67
2022/11/08 01:09:44;;;;;;;10.18;3.97;;;10.50;99.90;;;;;;5067980;28;20048;-66
2022/11/08 01:12:11;;;;;;;15.75;6.63;;;10.50;99.90;;;;;;5069153;28;20040;-68
2022/11/08 01:14:38;;;;;;;13.05;3.03;;;10.50;99.90;;;;;;5049980;28;20131;-67
2022/11/08 01:17:05;;;;;;;8.00;2.60;;;10.50;99.90;;;;;;5064799;28;20058;-65
2022/11/08 01:19:32;;;;;;;6.05;3.55;;;10.50;99.90;;;;;;5067371;28;20044;-66
2022/11/08 01:21:59;;;;;;;9.88;3.10;;;10.50;99.90;;;;;;5070468;28;20060;-66
2022/11/08 01:24:26;;;;;;;10.45;2.22;;;10.60;99.90;;;;;;5066674;28;20147;-65
2022/11/08 01:26:53;;;;;;;12.13;3.13;;;10.50;99.90;;;;;;5074820;28;20135;-66
2022/11/08 01:29:20;;;;;;;5.38;2.85;;;10.60;99.90;;;;;;5068328;28;20049;-70
2022/11/08 01:31:47;;;;;;;9.13;3.03;;;10.50;99.90;;;;;;5069782;28;20048;-66
2022/11/08 01:34:13;;;;;;;10.25;3.67;;;10.60;99.90;;;;;;5062504;28;20080;-79
2022/11/08 01:36:40;;;;;;;5.93;2.80;;;10.50;99.90;;;;;;5069756;28;20526;-67
2022/11/08 01:39:07;;;;;;;7.53;2.67;;;10.50;99.90;;;;;;5066832;28;20163;-69
2022/11/08 01:41:34;;;;;;;11.15;3.22;;;10.50;99.90;;;;;;5069716;28;20415;-71
2022/11/08 01:44:01;;;;;;;16.85;3.40;;;10.60;99.90;;;;;;5069016;28;20048;-65
2022/11/08 01:46:37;;;;;;;8.90;3.45;;;10.50;99.90;;;;;;5072356;28;20552;-66
2022/11/08 01:49:10;;;;;;;10.38;2.55;;;10.50;99.90;;;;;;5058336;28;20697;-65
2022/11/08 01:51:49;;;;;;;8.05;3.20;;;10.50;99.90;;;;;;5068460;28;20371;-68
2022/11/08 01:54:41;;;;;;;7.05;3.25;;;10.50;99.90;;;;;;5064625;28;20048;-65
2022/11/08 01:57:12;;;;;;;12.93;3.65;;;10.50;99.90;;;;;;5066657;28;20114;-71
2022/11/08 01:59:43;;;;;;;14.60;3.53;;;10.50;99.90;;;;;;5066345;28;20048;-66
2022/11/08 02:02:11;;;;;;;12.15;4.03;;;10.50;99.90;;;;;;5068721;28;20167;-71
2022/11/08 02:04:40;;;;;;;7.88;3.35;;;10.50;99.90;;;;;;5068833;28;20120;-75
2022/11/08 02:07:07;;;;;;;6.40;2.55;;;10.50;99.90;;;;;;5067685;28;20045;-65
2022/11/08 02:09:37;;;;;;;12.77;4.22;;;10.50;99.90;;;;;;5073730;28;20123;-66
2022/11/08 02:12:06;;;;;;;15.27;4.05;;;10.50;99.90;;;;;;5079078;28;20448;-73
2022/11/08 02:14:35;;;;;;;12.80;2.53;;;10.50;99.90;;;;;;5059511;28;20063;-70
2022/11/08 02:17:03;;;;;;;9.82;2.90;;;10.60;99.90;;;;;;5061250;28;20136;-69
2022/11/08 02:19:44;;;;;;;12.07;3.05;;;10.60;99.90;;;;;;5039255;28;20044;-66
2022/11/08 02:22:33;;;;;;;10.95;2.92;;;10.50;99.90;;;;;;5063209;28;20139;-70
2022/11/08 02:25:01;;;;;;;10.35;3.00;;;10.50;99.90;;;;;;5033399;28;20782;-66
2022/11/08 02:27:28;;;;;;;10.85;3.38;;;10.60;99.90;;;;;;5065766;28;20059;-66
2022/11/08 02:29:55;;;;;;;12.00;3.00;;;10.50;99.90;;;;;;5056520;28;20052;-70
2022/11/08 02:32:22;;;;;;;8.82;3.35;;;10.50;99.90;;;;;;5073123;28;20054;-66
2022/11/08 02:34:54;;;;;;;13.50;3.60;;;10.50;99.90;;;;;;5077418;28;20176;-66
2022/11/08 02:37:24;;;;;;;18.38;3.30;;;10.40;99.90;;;;;;5059219;28;20063;-65
2022/11/08 02:39:51;;;;;;;8.20;3.40;;;10.40;99.90;;;;;;5064310;28;20272;-72
2022/11/08 02:42:19;;;;;;;13.23;4.07;;;10.40;99.90;;;;;;5063096;28;20130;-66
2022/11/08 02:44:46;;;;;;;9.38;3.50;;;10.30;99.90;;;;;;5067659;28;20044;-66
2022/11/08 02:47:14;;;;;;;8.70;3.58;;;10.30;99.90;;;;;;5056939;28;20049;-65
2022/11/08 02:49:41;;;;;;;7.18;3.13;;;10.30;99.90;;;;;;5069094;28;20048;-66
2022/11/08 02:52:08;;;;;;;5.18;3.17;;;10.30;99.90;;;;;;5067897;28;20375;-75
2022/11/08 02:54:35;;;;;;;13.93;3.40;;;10.30;99.90;;;;;;5065637;28;20048;-66
2022/11/08 02:57:02;;;;;;;14.98;3.58;;;10.30;99.90;;;;;;5045346;28;20044;-65
2022/11/08 02:59:29;;;;;;;10.38;4.53;;;10.30;99.90;;;;;;5060338;28;20036;-65
2022/11/08 03:01:56;;;;;;;17.08;3.65;;;10.20;99.90;;;;;;5066335;28;20106;-69
2022/11/08 03:04:23;;;;;;;6.32;3.20;;;10.30;99.90;;;;;;5066380;28;20128;-68
2022/11/08 03:06:50;;;;;;;13.68;3.20;;;10.20;99.90;;;;;;5066757;28;20068;-70
2022/11/08 03:09:17;;;;;;;8.57;4.25;;;10.30;99.90;;;;;;5060250;28;20114;-66
2022/11/08 03:11:44;;;;;;;11.30;4.03;;;10.30;99.90;;;;;;5067446;28;20044;-66
2022/11/08 03:14:11;;;;;;;17.55;4.68;;;10.30;99.90;;;;;;5061087;28;20050;-66
2022/11/08 03:16:37;;;;;;;10.93;4.47;;;10.30;99.90;;;;;;5068908;28;20063;-67
2022/11/08 03:19:04;;;;;;;16.00;3.92;;;10.20;99.90;;;;;;5068984;28;20398;-67
2022/11/08 03:21:34;;;;;;;16.42;5.20;;;10.30;99.90;;;;;;5066466;28;20052;-67
2022/11/08 03:24:01;;;;;;;13.10;4.20;;;10.30;99.90;;;;;;5062986;28;20464;-67
2022/11/08 03:26:28;;;;;;;11.45;4.85;;;10.30;99.90;;;;;;5069361;28;20351;-66
2022/11/08 03:28:55;;;;;;;10.98;5.10;;;10.20;99.90;;;;;;5068360;28;20072;-68
2022/11/08 03:31:21;;;;;;;11.15;3.60;;;10.30;99.90;;;;;;5064264;28;20078;-66
2022/11/08 03:33:48;;;;;;;12.93;4.22;;;10.30;99.90;;;;;;5063286;28;20425;-69
2022/11/08 03:36:15;;;;;;;12.40;3.83;;;10.20;99.90;;;;;;5062595;28;20037;-65
2022/11/08 03:38:42;;;;;;;10.75;3.15;;;10.20;99.90;;;;;;5067071;28;20059;-65
2022/11/08 03:41:09;;;;;;;12.40;3.33;;;10.20;99.90;;;;;;5061024;28;20140;-66
2022/11/08 03:43:36;;;;;;;12.40;3.53;;;10.20;99.90;;;;;;5063110;28;20098;-70
2022/11/08 03:46:03;;;;;;;9.55;2.75;;;10.20;99.90;;;;;;5060775;28;20051;-66
2022/11/08 03:48:29;;;;;;;16.90;4.20;;;10.20;99.90;;;;;;5065316;28;20052;-65
2022/11/08 03:50:56;;;;;;;13.90;3.40;;;10.20;99.90;;;;;;5057378;28;20058;-68
2022/11/08 03:53:23;;;;;;;12.15;3.35;;;10.20;99.90;;;;;;5068003;28;20132;-66
2022/11/08 03:55:50;;;;;;;10.43;2.72;;;10.10;99.90;;;;;;5066635;28;20044;-65
2022/11/08 03:58:17;;;;;;;9.60;3.60;;;10.10;99.90;;;;;;5058227;28;20635;-66
2022/11/08 04:00:45;;;;;;;14.27;3.90;;;10.10;99.90;;;;;;5062771;28;20068;-65
2022/11/08 04:03:12;;;;;;;11.95;4.20;;;10.10;99.90;;;;;;5061684;28;20052;-66
2022/11/08 04:05:39;;;;;;;11.05;3.30;;;10.10;99.90;;;;;;5065938;28;20051;-67
2022/11/08 04:08:06;;;;;;;14.02;3.10;;;10.10;99.90;;;;;;5074068;28;20139;-68
2022/11/08 04:10:33;;;;;;;11.57;3.92;;;10.10;99.90;;;;;;5063824;28;20136;-70
2022/11/08 04:15:52;;;;;;;16.50;5.60;;;10.20;99.90;;;;;;5057216;28;20072;-65
2022/11/08 04:21:23;;;;;;;18.38;3.53;;;10.20;99.90;;;;;;5056841;28;20135;-69
2022/11/08 04:23:51;;;;;;;12.25;3.38;;;10.10;99.90;;;;;;5062241;28;20037;-67
2022/11/08 04:26:20;;;;;;;11.52;3.45;;;10.10;99.90;;;;;;5066488;28;20064;-66
2022/11/08 04:28:47;;;;;;;21.23;6.38;;;10.10;99.90;;;;;;5065599;28;20156;-72
2022/11/08 04:31:17;;;;;;;10.73;3.50;;;10.10;99.90;;;;;;5065208;28;20497;-66
2022/11/08 04:33:44;;;;;;;17.40;3.78;;;10.10;99.90;;;;;;5061931;28;20512;-65
2022/11/08 04:36:14;;;;;;;15.02;3.60;;;10.10;99.90;;;;;;5075649;28;20056;-67
2022/11/08 04:38:41;;;;;;;15.10;3.47;;;10.10;99.90;;;;;;5060352;28;20123;-72
2022/11/08 04:41:11;;;;;;;16.33;4.00;;;10.10;99.90;;;;;;5064191;28;20049;-67
2022/11/08 04:43:39;;;;;;;16.35;4.22;;;10.10;99.90;;;;;;5070908;28;20047;-66
2022/11/08 04:46:14;;;;;;;10.88;3.00;;;10.10;99.90;;;;;;5068389;28;20427;-70
2022/11/08 04:48:42;;;;;;;13.30;3.63;;;10.10;99.90;;;;;;5066709;28;20818;-78
2022/11/08 04:51:10;;;;;;;14.40;4.25;;;10.10;99.90;;;;;;5064529;28;20057;-69
2022/11/08 04:53:37;;;;;;;11.73;3.85;;;10.10;99.90;;;;;;5070975;28;20439;-69
2022/11/08 04:56:06;;;;;;;14.27;3.47;;;10.20;99.90;;;;;;5069302;28;20087;-77
2022/11/08 04:58:36;;;;;;;12.20;2.90;;;10.20;99.90;;;;;;5070159;28;20037;-66
2022/11/08 05:01:03;;;;;;;13.85;2.72;;;10.20;99.90;;;;;;5070378;28;20143;-69
2022/11/08 05:03:31;;;;;;;15.35;3.55;;;10.20;99.90;;;;;;5066864;28;20049;-66
2022/11/08 05:06:08;;;;;;;17.02;5.00;;;10.30;99.90;;;;;;5069327;28;20167;-66
2022/11/08 05:08:36;;;;;;;18.92;3.75;;;10.20;99.90;;;;;;5065332;28;20230;-74
2022/11/08 05:11:05;;;;;;;13.35;5.95;;;10.20;99.90;;;;;;5068502;28;20051;-68
2022/11/08 05:13:32;;;;;;;10.50;2.97;;;10.30;99.90;;;;;;5073503;28;20075;-66
2022/11/08 05:16:02;;;;;;;13.15;3.22;;;10.20;99.90;;;;;;5061702;28;20166;-66
2022/11/08 05:18:30;;;;;;;9.30;3.90;;;10.20;99.90;;;;;;5063970;28;20611;-65
2022/11/08 05:23:45;;;;;;;12.95;3.78;;;10.30;99.90;;;;;;5058707;28;20056;-66
2022/11/08 05:26:13;;;;;;;15.77;4.25;;;10.20;99.90;;;;;;5069018;28;20131;-66
2022/11/08 05:28:40;;;;;;;16.42;9.27;;;10.20;99.90;;;;;;5058139;28;20059;-67
2022/11/08 05:31:08;;;;;;;12.70;3.67;;;10.20;99.90;;;;;;5063893;28;20769;-66
2022/11/08 05:33:35;;;;;;;17.48;6.40;;;10.20;99.90;;;;;;5063635;28;20505;-69
2022/11/08 05:36:04;;;;;;;15.43;5.43;;;10.10;99.90;;;;;;5057812;28;20124;-71
2022/11/08 05:38:32;;;;;;;20.75;5.65;;;10.10;99.90;;;;;;5068799;28;20048;-73
2022/11/08 05:41:17;;;;;;;14.80;5.45;;;10.10;99.90;;;;;;5061713;28;20128;-68
2022/11/08 05:43:45;;;;;;;15.13;4.22;;;10.00;99.90;;;;;;5066825;28;20099;-67
2022/11/08 05:46:13;;;;;;;17.30;4.47;;;10.00;99.90;;;;;;5067031;28;20561;-70
2022/11/08 05:48:41;;;;;;;14.63;5.18;;;10.10;99.90;;;;;;5069565;28;20143;-67
2022/11/08 05:51:10;;;;;;;9.15;4.60;;;10.10;99.90;;;;;;5064069;28;20099;-67
2022/11/08 05:53:38;;;;;;;13.07;4.68;;;10.10;99.90;;;;;;5066879;28;20516;-68
2022/11/08 05:56:06;;;;;;;19.67;5.13;;;10.10;99.90;;;;;;5062784;28;20457;-66
2022/11/08 05:58:34;;;;;;;14.77;4.30;;;10.10;99.90;;;;;;5056717;28;20048;-66
2022/11/08 06:01:10;;;;;;;13.43;4.22;;;10.10;99.90;;;;;;5049937;28;20406;-66
2022/11/08 06:03:37;;;;;;;14.35;4.78;;;10.10;99.90;;;;;;5066577;28;20828;-68
2022/11/08 06:06:07;;;;;;;10.93;5.25;;;10.20;99.90;;;;;;5064422;28;20114;-66
2022/11/08 06:08:35;;;;;;;9.80;4.22;;;10.20;99.90;;;;;;5066916;28;20055;-69
2022/11/08 06:11:10;;;;;;;16.50;4.53;;;10.30;99.90;;;;;;5070221;28;20055;-66
2022/11/08 06:13:38;;;;;;;10.52;3.88;;;10.30;99.90;;;;;;5057225;28;20059;-68
2022/11/08 06:16:07;;;;;;;15.68;4.53;;;10.30;99.90;;;;;;5055822;28;20052;-67
2022/11/08 06:18:35;;;;;;;12.60;5.25;;;10.30;99.90;;;;;;5067525;28;20051;-66
2022/11/08 06:21:04;;;;;;;17.00;5.70;;;10.40;99.90;;;;;;5068695;28;20088;-67
2022/11/08 06:23:32;;;;;;;15.88;4.53;;;10.40;99.90;;;;;;5065217;28;20089;-66
2022/11/08 06:25:59;;;;;;;17.20;5.53;;;10.40;99.90;;;;;;5068400;28;20387;-66
2022/11/08 06:28:26;;;;;;;15.18;4.57;;;10.50;99.90;;;;;;5068728;28;20048;-66
2022/11/08 06:30:53;;;;;;;14.60;6.00;;;10.50;99.90;;;;;;5065237;28;20052;-66
2022/11/08 06:33:20;;;;;;;11.68;5.07;;;10.50;99.90;;;;;;5061652;28;20045;-67
2022/11/08 06:35:48;;;;;;;17.75;5.95;;;10.50;99.90;;;;;;5067694;28;20060;-66
2022/11/08 06:38:14;;;;;;;9.52;4.30;;;10.50;99.90;;;;;;5066763;28;20080;-66
2022/11/08 06:40:42;;;;;;;19.85;4.88;;;10.60;99.90;;;;;;5070238;28;20073;-66
2022/11/08 06:43:10;;;;;;;14.48;6.70;;;10.60;99.90;;;;;;5058336;28;20116;-74
2022/11/08 06:45:45;;;;;;;18.70;4.72;;;10.60;99.90;;;;;;5053309;28;20045;-66
2022/11/08 06:48:12;;;;;;;14.52;4.72;;;10.60;99.90;;;;;;5059921;28;20049;-69
2022/11/08 06:50:42;;;;;;;15.88;6.40;;;10.60;99.90;;;;;;5068030;28;20075;-74
2022/11/08 06:53:12;;;;;;;11.45;4.10;;;10.60;99.90;;;;;;5062321;28;20079;-70
2022/11/08 06:55:39;;;;;;;13.68;4.97;;;10.70;99.90;;;;;;5063512;28;20132;-66
2022/11/08 06:58:06;;;;;;;19.77;5.07;;;10.70;99.90;;;;;;5071201;28;20089;-68
2022/11/08 07:00:33;;;;;;;17.45;5.50;;;10.70;99.90;;;;;;5064988;28;20121;-68
2022/11/08 07:03:02;;;;;;;24.17;5.80;;;10.70;99.90;;;;;;5067800;28;20052;-67
2022/11/08 07:05:31;;;;;;;18.70;5.27;;;10.70;99.90;;;;;;5049674;28;20076;-66
2022/11/08 07:07:59;;;;;;;17.63;4.70;;;10.70;99.90;;;;;;5050204;28;20131;-66
2022/11/08 07:10:29;;;;;;;18.80;5.60;;;10.70;99.90;;;;;;5059284;28;20055;-65
2022/11/08 07:13:00;;;;;;;21.85;4.22;;;10.80;99.90;;;;;;5067512;28;20165;-66
2022/11/08 07:15:28;;;;;;;12.40;4.97;;;10.80;99.90;;;;;;5064571;28;20128;-66
2022/11/08 07:18:02;;;;;;;19.35;5.63;;;10.80;99.90;;;;;;5058815;28;20053;-73
2022/11/08 07:20:30;;;;;;;14.50;4.88;;;10.80;99.90;;;;;;5075179;28;20543;-66
2022/11/08 07:22:57;;;;;;;11.77;4.95;;;10.90;99.90;;;;;;5060591;28;20074;-66
2022/11/08 07:25:26;;;;;;;15.52;4.80;;;10.90;99.90;;;;;;5065140;28;20144;-66
2022/11/08 07:28:00;;;;;;;17.38;5.30;;;10.90;99.90;;;;;;5067244;28;20183;-66
2022/11/08 07:30:27;;;;;;;15.18;5.82;;;10.90;99.90;;;;;;5060226;28;20045;-73
2022/11/08 07:32:55;;;;;;;18.45;6.05;;;10.90;99.90;;;;;;5068460;28;20144;-69
2022/11/08 07:35:24;;;;;;;15.27;5.35;;;10.90;99.90;;;;;;5069786;28;20044;-70
2022/11/08 07:37:50;;;;;;;17.95;5.70;;;10.90;99.90;;;;;;5066134;28;20119;-68
2022/11/08 07:40:17;;;;;;;12.32;4.68;;;10.90;99.90;;;;;;5066883;28;20126;-65
2022/11/08 07:42:44;;;;;;;17.83;4.88;;;10.90;99.90;;;;;;5068100;28;20049;-66
2022/11/08 07:45:31;;;;;;;23.75;5.82;;;11.00;99.90;;;;;;5064683;28;20048;-66
2022/11/08 07:48:05;;;;;;;23.98;7.82;;;11.00;99.90;;;;;;5068398;28;20131;-68
2022/11/08 07:50:38;;;;;;;21.50;5.63;;;11.00;99.90;;;;;;5060923;28;20049;-67
2022/11/08 07:53:05;;;;;;;14.05;4.82;;;11.00;99.90;;;;;;5066313;28;20050;-67
2022/11/08 07:55:35;;;;;;;21.38;4.85;;;11.00;99.90;;;;;;5059028;28;20052;-67
2022/11/08 07:58:02;;;;;;;21.45;9.80;;;11.00;99.90;;;;;;5067409;28;20135;-69
2022/11/08 08:00:30;;;;;;;30.08;14.77;;;11.00;99.90;;;;;;5076601;28;20075;-67
2022/11/08 08:03:01;;;;;;;50.80;30.83;;;11.00;99.90;;;;;;5068246;28;20070;-66
2022/11/08 08:05:33;;;;;;;43.25;28.67;;;11.00;99.90;;;;;;5064529;28;20123;-66
2022/11/08 08:08:01;;;;;;;40.22;28.98;;;11.10;99.90;;;;;;5066618;28;20781;-68
2022/11/08 08:10:29;;;;;;;29.55;16.40;;;11.10;99.90;;;;;;5065259;28;20050;-66
2022/11/08 08:12:56;;;;;;;20.58;8.88;;;11.10;99.90;;;;;;5057210;28;20067;-66
2022/11/08 08:15:24;;;;;;;22.00;8.38;;;11.10;99.90;;;;;;5063869;28;20131;-66
2022/11/08 08:17:51;;;;;;;14.07;6.13;;;11.20;99.90;;;;;;5060107;28;20041;-72
2022/11/08 08:20:18;;;;;;;19.13;9.13;;;11.20;99.90;;;;;;5067354;28;20143;-66
2022/11/08 08:22:50;;;;;;;15.85;7.70;;;11.20;99.90;;;;;;5066437;28;20070;-66
2022/11/08 08:25:18;;;;;;;11.52;7.15;;;11.20;99.90;;;;;;5061018;28;20114;-73
2022/11/08 08:27:53;;;;;;;9.43;4.95;;;11.20;99.90;;;;;;5068259;28;20063;-67
2022/11/08 08:30:21;;;;;;;16.38;5.40;;;11.30;99.90;;;;;;5058360;28;20087;-66
2022/11/08 08:32:49;;;;;;;10.52;6.38;;;11.30;99.90;;;;;;5065643;28;20139;-67
2022/11/08 08:35:36;;;;;;;9.95;5.82;;;11.30;99.90;;;;;;5059874;28;20052;-70
2022/11/08 08:38:05;;;;;;;16.20;7.15;;;11.40;99.90;;;;;;5060704;28;20713;-66
2022/11/08 08:40:33;;;;;;;9.45;4.30;;;11.50;99.90;;;;;;5057947;28;20059;-68
2022/11/08 08:43:02;;;;;;;10.23;5.57;;;11.60;99.90;;;;;;5067149;28;20403;-72
2022/11/08 08:45:33;;;;;;;9.48;5.43;;;11.60;99.90;;;;;;5064993;28;20071;-67
2022/11/08 08:48:01;;;;;;;10.32;4.43;;;11.70;99.90;;;;;;5057664;28;20140;-67
2022/11/08 08:50:29;;;;;;;13.85;4.80;;;11.70;99.90;;;;;;5064301;28;20055;-68
2022/11/08 08:52:58;;;;;;;8.55;5.13;;;11.80;99.90;;;;;;5054786;28;20045;-66
2022/11/08 08:55:26;;;;;;;10.23;4.13;;;11.80;99.90;;;;;;5050520;28;20144;-66
2022/11/08 08:57:53;;;;;;;9.70;4.82;;;11.80;99.90;;;;;;5064281;28;20051;-68
2022/11/08 09:00:21;;;;;;;9.20;5.05;;;11.80;99.90;;;;;;5065946;28;20118;-67
2022/11/08 09:03:09;;;;;;;11.82;5.18;;;11.70;99.90;;;;;;5059414;28;20059;-70
2022/11/08 09:05:37;;;;;;;9.60;4.25;;;11.70;99.90;;;;;;5065792;28;20462;-69
2022/11/08 09:08:04;;;;;;;14.73;5.55;;;11.70;99.90;;;;;;5064395;28;20068;-66
2022/11/08 09:10:30;;;;;;;13.32;5.45;;;11.70;99.90;;;;;;5066228;28;20129;-68
2022/11/08 09:12:59;;;;;;;10.57;4.95;;;11.60;99.90;;;;;;5063928;28;20140;-66
2022/11/08 09:15:26;;;;;;;7.45;4.32;;;11.70;99.90;;;;;;5056664;28;20045;-66
2022/11/08 09:17:53;;;;;;;12.65;5.10;;;11.60;99.90;;;;;;5056012;28;20139;-66
2022/11/08 09:20:21;;;;;;;10.55;4.65;;;11.70;99.90;;;;;;5078145;28;20110;-70
2022/11/08 09:22:48;;;;;;;7.10;3.55;;;11.70;99.90;;;;;;5071356;28;20193;-66
2022/11/08 09:25:15;;;;;;;4.72;3.60;;;11.70;99.90;;;;;;5056139;28;20207;-67
2022/11/08 09:27:42;;;;;;;9.10;3.97;;;11.80;99.90;;;;;;5048775;28;20139;-66
2022/11/08 09:30:10;;;;;;;9.27;4.28;;;11.80;99.90;;;;;;5064989;28;20048;-71
2022/11/08 09:32:37;;;;;;;4.82;4.03;;;11.80;99.90;;;;;;5066731;28;20457;-66
2022/11/08 09:35:24;;;;;;;5.53;4.38;;;11.80;99.90;;;;;;5068109;28;20426;-67
2022/11/08 09:37:54;;;;;;;7.70;4.03;;;11.90;99.90;;;;;;5069158;28;20041;-70
2022/11/08 09:40:30;;;;;;;9.95;3.75;;;11.90;99.90;;;;;;5063149;28;20049;-65
2022/11/08 09:43:23;;;;;;;10.02;4.30;;;12.00;99.90;;;;;;5064818;28;20082;-66
2022/11/08 09:45:52;;;;;;;6.70;3.53;;;12.00;99.90;;;;;;5068142;28;20516;-66
2022/11/08 09:48:29;;;;;;;6.72;4.38;;;12.10;99.90;;;;;;5070451;28;20136;-66
2022/11/08 09:50:58;;;;;;;8.35;3.55;;;12.10;99.90;;;;;;5075128;28;20056;-65
2022/11/08 09:54:03;;;;;;;6.95;3.40;;;12.10;99.90;;;;;;5063674;28;20082;-66
2022/11/08 09:56:31;;;;;;;10.75;4.97;;;12.20;99.90;;;;;;5069428;28;20060;-68
2022/11/08 09:59:12;;;;;;;7.88;4.30;;;12.20;99.90;;;;;;5069894;28;20048;-65
2022/11/08 10:01:39;;;;;;;16.13;5.40;;;12.10;99.90;;;;;;5068038;28;20202;-65
2022/11/08 10:04:18;;;;;;;6.28;4.90;;;12.20;99.90;;;;;;5069671;28;20045;-66
2022/11/08 10:07:13;;;;;;;8.82;4.28;;;12.20;99.90;;;;;;5068486;28;20052;-69
2022/11/08 10:10:18;;;;;;;10.05;4.50;;;12.20;99.90;;;;;;5068851;28;20063;-66
2022/11/08 10:13:04;;;;;;;10.85;4.75;;;12.20;99.90;;;;;;5069381;28;20113;-67
2022/11/08 10:15:54;;;;;;;9.77;4.93;;;12.20;99.90;;;;;;5064710;28;20156;-66
2022/11/08 10:18:30;;;;;;;11.75;6.30;;;12.20;99.90;;;;;;5067114;28;20774;-66
2022/11/08 10:21:34;;;;;;;13.02;6.03;;;12.20;99.90;;;;;;5069123;28;20048;-68
2022/11/08 10:24:23;;;;;;;8.32;5.35;;;12.20;99.90;;;;;;5057178;28;20072;-70
2022/11/08 10:26:54;;;;;;;12.25;4.93;;;12.20;99.90;;;;;;5045032;28;20533;-67
2022/11/08 10:29:42;;;;;;;9.38;5.15;;;12.20;99.90;;;;;;5062026;28;20130;-66
2022/11/08 10:32:29;;;;;;;10.48;4.72;;;12.30;99.90;;;;;;5068495;28;20048;-65
2022/11/08 10:35:40;;;;;;;9.60;4.72;;;12.20;99.90;;;;;;5057219;28;20052;-65
2022/11/08 10:38:18;;;;;;;15.73;6.57;;;12.30;99.90;;;;;;5020611;28;20143;-65
2022/11/08 10:41:03;;;;;;;8.85;5.03;;;12.30;99.90;;;;;;5072773;28;20442;-69
2022/11/08 10:43:39;;;;;;;8.07;4.70;;;12.30;99.90;;;;;;5064537;28;20097;-66
2022/11/08 10:46:46;;;;;;;7.85;4.10;;;12.30;99.90;;;;;;5061182;28;20120;-80
2022/11/08 10:49:27;;;;;;;11.63;4.88;;;12.30;99.90;;;;;;5078783;28;20054;-68
2022/11/08 10:52:11;;;;;;;10.65;4.07;;;12.30;99.90;;;;;;5068100;28;20481;-65
2022/11/08 10:54:55;;;;;;;8.70;4.47;;;12.30;99.90;;;;;;5065939;28;20047;-65
2022/11/08 10:57:37;;;;;;;10.05;4.55;;;12.40;99.90;;;;;;5055848;28;20426;-65
2022/11/08 11:00:28;;;;;;;4.93;3.88;;;12.40;99.90;;;;;;5064642;28;20079;-66
2022/11/08 11:02:54;;;;;;;;;;;12.40;99.90;;;;;;5057781;28;20075;-73
2022/11/08 11:05:24;;;;;;;6.55;4.53;;;12.40;99.90;;;;;;5063242;28;19920;-67
2022/11/08 11:07:58;;;;;;;7.78;4.10;;;12.40;99.90;;;;;;5053587;28;20414;-69
2022/11/08 11:10:35;;;;;;;7.10;4.72;;;12.40;99.90;;;;;;5058714;28;20129;-65
2022/11/08 11:13:05;;;;;;;8.05;5.53;;;12.40;99.90;;;;;;5062896;28;20135;-68
2022/11/08 11:15:45;;;;;;;;;;;12.40;99.90;;;;;;5070541;28;20052;-67
2022/11/08 11:18:22;;;;;;;5.70;3.95;;;12.40;99.90;;;;;;5067384;28;19928;-71
2022/11/08 11:21:00;;;;;;;6.68;4.45;;;12.40;99.90;;;;;;5061832;28;20072;-74
2022/11/08 11:23:39;;;;;;;5.07;4.35;;;12.40;99.90;;;;;;5058816;28;20052;-65
2022/11/08 11:26:16;;;;;;;7.15;3.88;;;12.40;99.90;;;;;;5066692;28;20139;-66
2022/11/08 11:29:14;;;;;;;9.82;4.68;;;12.40;99.90;;;;;;5053041;28;20056;-68
2022/11/08 11:31:47;;;;;;;5.97;3.97;;;12.50;99.90;;;;;;5061371;28;20095;-66
2022/11/08 11:34:16;;;;;;;8.38;4.72;;;12.50;99.90;;;;;;5064838;28;20094;-69
2022/11/08 11:36:49;;;;;;;4.57;4.15;;;12.50;99.90;;;;;;5055858;28;20040;-65
2022/11/08 11:39:27;;;;;;;13.63;4.95;;;12.50;99.90;;;;;;5064868;28;20348;-68
2022/11/08 11:42:01;;;;;;;13.25;7.75;;;12.40;99.90;;;;;;5058697;28;20068;-66
2022/11/08 11:45:05;;;;;;;7.07;5.28;;;12.40;99.90;;;;;;5051870;28;20044;-65
2022/11/08 11:47:56;;;;;;;9.93;5.05;;;12.50;99.90;;;;;;5051568;28;20131;-67
2022/11/08 11:50:35;;;;;;;9.02;4.18;;;12.50;99.90;;;;;;5065301;28;20056;-66
2022/11/08 11:53:18;;;;;;;7.85;5.60;;;12.50;99.90;;;;;;5057452;28;20135;-68
2022/11/08 11:56:03;;;;;;;7.05;4.43;;;12.50;99.90;;;;;;5064601;28;20191;-67
2022/11/08 11:58:54;;;;;;;9.07;5.35;;;12.60;99.90;;;;;;5069198;28;20136;-65
2022/11/08 12:01:37;;;;;;;6.22;4.32;;;12.60;99.90;;;;;;5059502;28;20040;-73
2022/11/08 12:04:34;;;;;;;11.13;4.75;;;12.60;99.90;;;;;;5055564;28;20411;-73
2022/11/08 12:07:27;;;;;;;11.23;5.97;;;12.60;99.90;;;;;;5053765;28;20064;-69
2022/11/08 12:10:06;;;;;;;12.90;5.60;;;12.60;99.90;;;;;;5057267;28;20048;-67
2022/11/08 12:13:09;;;;;;;10.40;5.68;;;12.60;99.90;;;;;;5057927;28;20076;-69
2022/11/08 12:15:50;;;;;;;10.50;5.40;;;12.60;99.90;;;;;;5060679;28;20060;-66
2022/11/08 12:18:16;;;;;;;;;;;12.70;99.90;;;;;;5061730;28;20328;-66
2022/11/08 12:21:26;;;;;;;6.97;5.85;;;12.70;99.90;;;;;;5063622;28;19925;-67
2022/11/08 12:24:08;;;;;;;5.30;4.47;;;12.60;99.90;;;;;;5062645;28;20132;-73
2022/11/08 12:26:52;;;;;;;4.65;3.90;;;12.60;99.90;;;;;;5062832;28;20335;-67
2022/11/08 12:29:50;;;;;;;8.60;5.20;;;12.70;99.90;;;;;;5059391;28;20048;-69
2022/11/08 12:32:25;;;;;;;8.57;4.28;;;12.70;99.90;;;;;;5051806;28;20045;-73
2022/11/08 12:35:11;;;;;;;7.43;4.78;;;12.60;99.90;;;;;;5063691;28;20662;-71
2022/11/08 12:37:41;;;;;;;9.70;5.00;;;12.60;99.90;;;;;;5062769;28;20123;-66
2022/11/08 12:40:14;;;;;;;8.48;4.40;;;12.60;99.90;;;;;;5059045;28;20073;-66
2022/11/08 12:42:52;;;;;;;15.15;6.95;;;12.60;99.90;;;;;;5065761;28;20079;-68
2022/11/08 12:45:25;;;;;;;5.13;4.65;;;12.50;99.90;;;;;;5061070;28;20049;-66
2022/11/08 12:47:55;;;;;;;7.38;5.55;;;12.50;99.90;;;;;;5064307;28;20130;-73
2022/11/08 12:50:46;;;;;;;13.20;6.00;;;12.50;99.90;;;;;;5066862;28;20043;-66
2022/11/08 12:53:33;;;;;;;6.57;5.13;;;12.50;99.90;;;;;;5058419;28;20083;-66
2022/11/08 12:56:03;;;;;;;9.65;6.82;;;12.50;99.90;;;;;;5066816;28;20425;-66
2022/11/08 12:58:38;;;;;;;9.15;6.03;;;12.50;99.90;;;;;;5064626;28;20036;-66
2022/11/08 13:01:10;;;;;;;9.95;5.70;;;12.50;99.90;;;;;;5062923;28;20057;-73
2022/11/08 13:03:48;;;;;;;6.93;6.15;;;12.50;99.90;;;;;;5047106;28;20386;-66
2022/11/08 13:06:38;;;;;;;6.10;5.40;;;12.50;99.90;;;;;;5063110;28;20328;-67
2022/11/08 13:09:30;;;;;;;12.20;5.90;;;12.50;99.90;;;;;;5064017;28;20045;-73
2022/11/08 13:12:03;;;;;;;10.93;6.47;;;12.40;99.90;;;;;;5059279;28;20545;-65
2022/11/08 13:14:31;;;;;;;10.73;6.43;;;12.40;99.90;;;;;;5062573;28;20483;-67
2022/11/08 13:17:15;;;;;;;6.63;4.97;;;12.30;99.90;;;;;;5058571;28;20043;-69
2022/11/08 13:19:50;;;;;;;12.90;5.90;;;12.30;99.90;;;;;;5069815;28;20070;-66
2022/11/08 13:22:32;;;;;;;11.90;6.50;;;12.30;99.90;;;;;;5068089;28;20053;-71
2022/11/08 13:25:00;;;;;;;12.98;5.90;;;12.20;99.90;;;;;;5063961;28;20086;-66